Time;durP1;ratioP1;P1;durP2;ratioP2;P2;SDS_P1;SDS_P2;PMS_P1;PMS_P2;Temp;Humidity;BMP_temperature;BMP_pressure;BME280_temperature;BME280_humidity;BME280_pressure;Samples;Min_cycle;Max_cycle;Signal;HPM_P1;HPM_P2
2022/09/27 13:40:49;;;;;;;7.73;6.70;;;;;;;;;;793480;170;948421;-54
2022/09/27 13:43:16;;;;;;;9.10;7.07;;;;;;;;;;768595;180;818195;-55
2022/09/27 13:54:52;;;;;;;22.87;15.27;;;;;;;;;;785951;170;829177;-58
2022/09/27 13:57:23;;;;;;;19.10;10.83;;;;;;;;;;765113;180;817180;-55
2022/09/27 13:59:50;;;;;;;11.97;9.80;;;;;;;;;;752976;183;919830;-58
2022/09/27 14:02:16;;;;;;;11.73;8.37;;;;;;;;;;760305;183;825783;-58
2022/09/27 14:04:43;;;;;;;10.33;7.20;;;;;;;;;;748748;183;816443;-55
2022/09/27 14:07:09;;;;;;;8.90;6.47;;;;;;;;;;751915;183;919660;-55
2022/09/27 14:09:35;;;;;;;9.43;7.30;;;;;;;;;;759927;184;628900;-55
2022/09/27 14:12:01;;;;;;;9.90;6.47;;;;;;;;;;750751;183;779193;-56
2022/09/27 14:14:27;;;;;;;9.63;6.60;;;;;;;;;;751356;184;782149;-55
2022/09/27 14:16:53;;;;;;;8.03;7.17;;;;;;;;;;760095;183;613515;-57
2022/09/27 14:19:19;;;;;;;11.40;7.27;;;;;;;;;;753241;183;917137;-57
2022/09/27 14:21:45;;;;;;;6.77;5.80;;;;;;;;;;739079;189;816829;-55
2022/09/27 14:24:20;;;;;;;10.87;7.10;;;;;;;;;;748339;184;918732;-55
2022/09/27 14:26:46;;;;;;;10.53;7.50;;;;;;;;;;757147;183;713645;-59
2022/09/27 14:29:16;;;;;;;8.00;5.63;;;;;;;;;;752373;183;802419;-56
2022/09/27 14:31:42;;;;;;;8.70;5.47;;;;;;;;;;752974;183;714347;-55
2022/09/27 14:34:07;;;;;;;6.75;5.45;;;;;;;;;;752708;183;900238;-55
2022/09/27 14:39:14;;;;;;;7.47;5.60;;;;;;;;;;753672;183;835557;-59
2022/09/27 14:41:39;;;;;;;7.00;5.67;;;;;;;;;;756674;183;626008;-55
2022/09/27 14:44:05;;;;;;;6.27;4.70;;;;;;;;;;754030;183;776480;-55
2022/09/27 14:46:31;;;;;;;6.37;4.73;;;;;;;;;;758245;183;822860;-55
2022/09/27 14:48:58;;;;;;;5.40;4.07;;;;;;;;;;760130;183;714997;-59
2022/09/27 14:51:26;;;;;;;8.53;5.27;;;;;;;;;;752199;183;901823;-58
2022/09/27 14:53:55;;;;;;;6.30;4.00;;;;;;;;;;757406;183;913411;-58
2022/09/27 14:56:21;;;;;;;5.40;3.70;;;;;;;;;;750019;183;816938;-56
2022/09/27 14:58:45;;;;;;;6.03;4.60;;;;;;;;;;743976;187;889347;-55
2022/09/27 15:01:12;;;;;;;7.63;3.80;;;;;;;;;;751082;184;893748;-58
2022/09/27 15:03:38;;;;;;;6.10;4.47;;;;;;;;;;750815;185;787148;-56
2022/09/27 15:06:03;;;;;;;6.53;3.87;;;;;;;;;;755979;182;919605;-60
2022/09/27 15:08:29;;;;;;;5.10;3.70;;;;;;;;;;755590;183;815927;-60
2022/09/27 15:10:55;;;;;;;5.80;4.03;;;;;;;;;;760881;183;629004;-55
2022/09/27 15:13:21;;;;;;;5.10;3.57;;;;;;;;;;757064;183;809036;-56
2022/09/27 15:15:47;;;;;;;8.33;4.80;;;;;;;;;;753296;183;858813;-58
2022/09/27 15:18:19;;;;;;;5.95;4.00;;;;;;;;;;754603;183;919578;-59
2022/09/27 15:20:44;;;;;;;6.27;3.67;;;;;;;;;;758974;183;914605;-55
2022/09/27 15:23:10;;;;;;;5.30;4.20;;;;;;;;;;752003;183;907940;-55
2022/09/27 15:25:37;;;;;;;5.43;3.60;;;;;;;;;;754095;184;815870;-59
2022/09/27 15:28:04;;;;;;;7.40;3.20;;;;;;;;;;761650;183;697403;-59
2022/09/27 15:30:32;;;;;;;4.07;3.10;;;;;;;;;;759458;183;821582;-58
2022/09/27 15:32:58;;;;;;;6.70;3.80;;;;;;;;;;761309;183;651654;-59
2022/09/27 15:35:24;;;;;;;4.57;3.67;;;;;;;;;;753988;183;879044;-59
2022/09/27 15:37:51;;;;;;;8.55;3.33;;;;;;;;;;746390;184;918024;-55
2022/09/27 15:40:32;;;;;;;6.00;3.83;;;;;;;;;;749776;183;630687;-55
2022/09/27 15:42:59;;;;;;;8.33;3.57;;;;;;;;;;739701;185;835040;-55
2022/09/27 15:45:30;;;;;;;6.10;4.60;;;;;;;;;;750719;183;879441;-55
2022/09/27 15:47:55;;;;;;;5.50;4.60;;;;;;;;;;758647;183;811393;-59
2022/09/27 15:50:32;;;;;;;7.77;4.50;;;;;;;;;;754964;183;821922;-59
2022/09/27 15:52:58;;;;;;;6.47;4.13;;;;;;;;;;751610;183;827376;-55
2022/09/27 15:55:24;;;;;;;5.95;4.57;;;;;;;;;;753966;183;917134;-55
2022/09/27 15:57:50;;;;;;;7.17;5.00;;;;;;;;;;757182;184;625571;-55
2022/09/27 16:00:16;;;;;;;10.13;5.10;;;;;;;;;;758759;185;620194;-55
2022/09/27 16:02:42;;;;;;;7.77;5.13;;;;;;;;;;759783;183;636116;-55
2022/09/27 16:05:08;;;;;;;7.60;5.40;;;;;;;;;;762561;184;631966;-60
2022/09/27 16:07:33;;;;;;;7.00;5.57;;;;;;;;;;748761;185;619132;-60
2022/09/27 16:09:59;;;;;;;8.23;5.60;;;;;;;;;;748326;184;919083;-59
2022/09/27 16:12:28;;;;;;;9.80;7.27;;;;;;;;;;739462;187;821298;-58
2022/09/27 16:14:51;;;;;;;11.50;6.07;;;;;;;;;;763899;183;623767;-55
2022/09/27 16:17:17;;;;;;;7.43;5.80;;;;;;;;;;763521;182;626907;-56
2022/09/27 16:19:43;;;;;;;7.10;6.40;;;;;;;;;;763409;183;623400;-59
2022/09/27 16:22:09;;;;;;;11.60;7.40;;;;;;;;;;763900;183;629800;-58
2022/09/27 16:24:35;;;;;;;6.87;5.90;;;;;;;;;;754512;184;713787;-59
2022/09/27 16:27:02;;;;;;;7.53;6.00;;;;;;;;;;753145;183;919507;-55
2022/09/27 16:29:27;;;;;;;10.47;7.37;;;;;;;;;;754552;183;919897;-59
2022/09/27 16:31:53;;;;;;;10.57;6.73;;;;;;;;;;759327;184;919071;-55
2022/09/27 16:34:19;;;;;;;7.53;6.27;;;;;;;;;;754160;184;918471;-56
2022/09/27 16:36:45;;;;;;;8.40;6.70;;;;;;;;;;756075;184;807665;-59
2022/09/27 16:39:12;;;;;;;10.30;7.20;;;;;;;;;;759770;184;921006;-59
2022/09/27 16:41:39;;;;;;;9.77;7.17;;;;;;;;;;753489;183;918966;-56
2022/09/27 16:44:06;;;;;;;8.60;6.83;;;;;;;;;;754264;184;1020152;-58
2022/09/27 16:46:31;;;;;;;8.67;7.20;;;;;;;;;;757690;184;920424;-59
2022/09/27 16:48:58;;;;;;;11.30;9.00;;;;;;;;;;756338;183;874941;-60
2022/09/27 16:53:55;;;;;;;18.60;8.73;;;;;;;;;;757923;183;915054;-59
2022/09/27 16:56:21;;;;;;;11.37;8.50;;;;;;;;;;756839;184;919375;-59
2022/09/27 16:58:47;;;;;;;11.97;8.73;;;;;;;;;;754308;184;925274;-60
2022/09/27 17:01:17;;;;;;;12.50;9.00;;;;;;;;;;752771;184;1021594;-56
2022/09/27 17:03:43;;;;;;;16.45;9.38;;;;;;;;;;751236;184;919767;-58
2022/09/27 17:06:09;;;;;;;11.43;8.90;;;;;;;;;;744850;187;918096;-56
2022/09/27 17:08:34;;;;;;;13.00;8.57;;;;;;;;;;748215;184;918504;-58
2022/09/27 17:11:00;;;;;;;11.33;7.80;;;;;;;;;;745678;185;919219;-59
2022/09/27 17:13:26;;;;;;;10.93;8.50;;;;;;;;;;759077;183;818144;-56
2022/09/27 17:15:53;;;;;;;13.73;9.27;;;;;;;;;;754552;184;913942;-56
2022/09/27 17:18:18;;;;;;;16.17;9.30;;;;;;;;;;756046;183;819519;-56
2022/09/27 17:20:44;;;;;;;15.23;9.13;;;;;;;;;;755426;184;903518;-55
2022/09/27 17:23:10;;;;;;;12.90;9.10;;;;;;;;;;753141;184;901109;-59
2022/09/27 17:25:36;;;;;;;13.07;10.30;;;;;;;;;;752800;184;919794;-56
2022/09/27 17:28:01;;;;;;;13.70;10.57;;;;;;;;;;759207;182;919208;-59
2022/09/27 17:30:27;;;;;;;17.20;10.98;;;;;;;;;;751686;184;816231;-58
2022/09/27 17:32:53;;;;;;;15.33;10.37;;;;;;;;;;752669;183;900852;-56
2022/09/27 17:35:20;;;;;;;17.93;11.20;;;;;;;;;;750632;184;919147;-58
2022/09/27 17:37:45;;;;;;;17.50;12.20;;;;;;;;;;761460;183;919263;-56
2022/09/27 17:40:13;;;;;;;14.73;10.30;;;;;;;;;;752835;184;895278;-56
2022/09/27 17:42:37;;;;;;;16.67;10.82;;;;;;;;;;755652;184;920019;-59
2022/09/27 17:45:03;;;;;;;15.17;9.80;;;;;;;;;;758622;184;907513;-57
2022/09/27 17:52:33;;;;;;;13.70;10.60;;;;;;;;;;755368;184;924337;-59
2022/09/27 17:54:58;;;;;;;15.23;11.20;;;;;;;;;;758204;183;918871;-60
2022/09/27 17:57:24;;;;;;;13.70;10.70;;;;;;;;;;750880;183;817362;-59
2022/09/27 17:59:50;;;;;;;13.80;9.40;;;;;;;;;;751795;183;921117;-58
2022/09/27 18:02:15;;;;;;;12.93;10.07;;;;;;;;;;761631;184;919678;-59
2022/09/27 18:04:41;;;;;;;14.03;10.27;;;;;;;;;;756902;183;761538;-58
2022/09/27 18:07:07;;;;;;;15.93;10.45;;;;;;;;;;753473;184;919070;-59
2022/09/27 18:09:33;;;;;;;14.50;9.43;;;;;;;;;;754820;184;819409;-56
2022/09/27 18:11:59;;;;;;;15.87;10.50;;;;;;;;;;760419;183;919594;-58
2022/09/27 18:14:26;;;;;;;15.13;10.67;;;;;;;;;;741549;184;917179;-56
2022/09/27 18:16:56;;;;;;;15.47;10.80;;;;;;;;;;740863;188;922496;-59
2022/09/27 18:19:18;;;;;;;17.40;11.27;;;;;;;;;;747763;186;918762;-56
2022/09/27 18:21:43;;;;;;;15.70;12.83;;;;;;;;;;747326;184;919096;-58
2022/09/27 18:24:10;;;;;;;17.47;10.50;;;;;;;;;;757335;184;919605;-55
2022/09/27 18:26:37;;;;;;;14.40;10.63;;;;;;;;;;755500;184;915169;-56
2022/09/27 18:29:01;;;;;;;18.47;11.63;;;;;;;;;;753948;181;827283;-56
2022/09/27 18:31:27;;;;;;;17.30;11.60;;;;;;;;;;751199;184;919851;-55
2022/09/27 18:33:54;;;;;;;17.23;11.90;;;;;;;;;;754992;183;818933;-59
2022/09/27 18:36:20;;;;;;;18.13;12.80;;;;;;;;;;760780;183;614162;-60
2022/09/27 18:38:46;;;;;;;20.97;12.67;;;;;;;;;;750720;182;834764;-58
2022/09/27 18:41:11;;;;;;;14.13;10.53;;;;;;;;;;756568;183;816779;-55
2022/09/27 18:43:37;;;;;;;14.97;11.13;;;;;;;;;;761555;183;818422;-60
2022/09/27 18:46:03;;;;;;;14.97;10.57;;;;;;;;;;753010;182;919733;-58
2022/09/27 18:48:30;;;;;;;13.20;9.80;;;;;;;;;;755217;184;818880;-59
2022/09/27 18:50:56;;;;;;;17.53;12.30;;;;;;;;;;761880;183;817694;-60
2022/09/27 18:53:22;;;;;;;16.40;9.60;;;;;;;;;;755401;183;918927;-56
2022/09/27 18:55:47;;;;;;;16.20;11.95;;;;;;;;;;760851;183;802413;-59
2022/09/27 18:58:15;;;;;;;21.57;11.40;;;;;;;;;;756960;183;872576;-56
2022/09/27 19:00:39;;;;;;;17.30;10.87;;;;;;;;;;766662;180;818169;-56
2022/09/27 19:03:05;;;;;;;12.77;10.27;;;;;;;;;;750769;183;921355;-59
2022/09/27 19:05:31;;;;;;;15.70;10.23;;;;;;;;;;751617;184;920337;-56
2022/09/27 19:07:57;;;;;;;16.07;10.13;;;;;;;;;;755446;183;921570;-56
2022/09/27 19:10:23;;;;;;;12.60;9.73;;;;;;;;;;753442;183;926892;-58
2022/09/27 19:12:48;;;;;;;14.17;10.27;;;;;;;;;;751990;184;921040;-56
2022/09/27 19:15:14;;;;;;;13.10;9.27;;;;;;;;;;756923;183;919813;-59
2022/09/27 19:17:40;;;;;;;11.60;9.97;;;;;;;;;;752977;183;919119;-59
2022/09/27 19:20:07;;;;;;;12.97;9.57;;;;;;;;;;753367;184;919500;-58
2022/09/27 19:22:32;;;;;;;13.83;10.63;;;;;;;;;;753590;183;917838;-56
2022/09/27 19:24:58;;;;;;;14.97;9.97;;;;;;;;;;757870;184;817022;-56
2022/09/27 19:27:24;;;;;;;12.90;9.87;;;;;;;;;;745546;184;911601;-60
2022/09/27 19:29:50;;;;;;;13.77;10.27;;;;;;;;;;752671;183;811512;-58
2022/09/27 19:32:16;;;;;;;15.97;10.17;;;;;;;;;;760457;183;714012;-56
2022/09/27 19:34:42;;;;;;;14.40;10.13;;;;;;;;;;752838;183;911344;-58
2022/09/27 19:37:08;;;;;;;17.83;9.60;;;;;;;;;;754723;183;817599;-56
2022/09/27 19:39:33;;;;;;;15.17;11.47;;;;;;;;;;756051;184;811954;-59
2022/09/27 19:41:59;;;;;;;18.07;11.40;;;;;;;;;;757546;184;922082;-58
2022/09/27 19:44:25;;;;;;;15.83;10.07;;;;;;;;;;759108;183;628066;-55
2022/09/27 19:46:51;;;;;;;14.20;10.47;;;;;;;;;;763635;183;628926;-56
2022/09/27 19:49:17;;;;;;;14.03;10.17;;;;;;;;;;757705;183;918240;-60
2022/09/27 19:51:43;;;;;;;15.13;11.60;;;;;;;;;;757020;182;919145;-56
2022/09/27 19:54:10;;;;;;;16.63;11.10;;;;;;;;;;754840;183;915068;-56
2022/09/27 19:56:35;;;;;;;14.73;10.27;;;;;;;;;;761949;184;813034;-56
2022/09/27 19:59:01;;;;;;;16.30;10.13;;;;;;;;;;749485;183;941884;-56
2022/09/27 20:01:27;;;;;;;15.93;10.80;;;;;;;;;;754442;184;824672;-60
2022/09/27 20:03:54;;;;;;;14.40;11.00;;;;;;;;;;758995;183;914645;-58
2022/09/27 20:06:19;;;;;;;15.80;11.50;;;;;;;;;;753800;183;919216;-58
2022/09/27 20:08:46;;;;;;;13.77;10.50;;;;;;;;;;755539;184;829596;-58
2022/09/27 20:11:10;;;;;;;12.90;10.87;;;;;;;;;;759758;184;785776;-55
2022/09/27 20:13:36;;;;;;;19.08;12.45;;;;;;;;;;753310;183;1020443;-56
2022/09/27 20:16:04;;;;;;;13.90;11.50;;;;;;;;;;756803;182;919856;-56
2022/09/27 20:18:29;;;;;;;14.40;10.97;;;;;;;;;;761637;181;918850;-59
2022/09/27 20:21:03;;;;;;;17.60;11.37;;;;;;;;;;772539;180;814889;-56
2022/09/27 20:23:29;;;;;;;17.67;13.03;;;;;;;;;;766002;180;934236;-55
2022/09/27 20:25:58;;;;;;;16.20;12.48;;;;;;;;;;762887;180;919775;-56
2022/09/27 20:28:24;;;;;;;18.70;13.50;;;;;;;;;;755174;183;920127;-58
2022/09/27 20:30:54;;;;;;;18.27;12.70;;;;;;;;;;761068;182;815163;-56
2022/09/27 20:35:51;;;;;;;17.10;11.70;;;;;;;;;;753805;182;919369;-61
2022/09/27 20:38:17;;;;;;;16.53;12.40;;;;;;;;;;755806;183;924999;-56
2022/09/27 20:40:43;;;;;;;18.50;11.33;;;;;;;;;;744586;185;920002;-59
2022/09/27 20:43:09;;;;;;;13.73;10.97;;;;;;;;;;757344;182;920877;-60
2022/09/27 20:45:34;;;;;;;22.33;12.15;;;;;;;;;;763936;181;929173;-59
2022/09/27 20:48:01;;;;;;;17.90;11.23;;;;;;;;;;769606;180;919548;-56
2022/09/27 20:50:26;;;;;;;14.70;11.03;;;;;;;;;;752399;182;919408;-59
2022/09/27 20:52:52;;;;;;;16.20;12.57;;;;;;;;;;756072;182;912179;-58
2022/09/27 20:55:19;;;;;;;14.93;10.27;;;;;;;;;;761248;183;817165;-56
2022/09/27 20:57:44;;;;;;;19.70;11.50;;;;;;;;;;759531;183;918809;-56
2022/09/27 21:00:10;;;;;;;13.20;9.77;;;;;;;;;;735581;189;821594;-55
2022/09/27 21:02:36;;;;;;;15.88;11.18;;;;;;;;;;768787;180;918695;-60
2022/09/27 21:05:03;;;;;;;20.20;11.60;;;;;;;;;;768183;177;923386;-58
2022/09/27 21:07:28;;;;;;;17.07;10.40;;;;;;;;;;765282;180;919715;-56
2022/09/27 21:09:54;;;;;;;15.33;11.13;;;;;;;;;;765199;180;919388;-60
2022/09/27 21:12:20;;;;;;;14.20;10.90;;;;;;;;;;773094;180;919463;-58
2022/09/27 21:14:46;;;;;;;15.87;11.27;;;;;;;;;;766557;180;918816;-58
2022/09/27 21:17:12;;;;;;;18.37;12.20;;;;;;;;;;766343;180;919344;-60
2022/09/27 21:19:38;;;;;;;21.43;11.20;;;;;;;;;;769404;180;919064;-56
2022/09/27 21:22:03;;;;;;;16.77;11.70;;;;;;;;;;762790;180;920425;-58
2022/09/27 21:24:29;;;;;;;17.13;10.87;;;;;;;;;;764734;181;919430;-59
2022/09/27 21:26:57;;;;;;;12.27;8.50;;;;;;;;;;771673;180;917959;-59
2022/09/27 21:29:22;;;;;;;16.43;11.13;;;;;;;;;;763920;181;919513;-59
2022/09/27 21:31:47;;;;;;;16.03;10.20;;;;;;;;;;758143;182;920134;-56
2022/09/27 21:34:13;;;;;;;16.80;10.70;;;;;;;;;;765122;180;917533;-56
2022/09/27 21:36:39;;;;;;;15.97;8.77;;;;;;;;;;766783;180;849880;-55
2022/09/27 21:39:04;;;;;;;11.10;8.53;;;;;;;;;;764802;180;920360;-56
2022/09/27 21:41:30;;;;;;;8.60;6.13;;;;;;;;;;766333;180;919660;-60
2022/09/27 21:43:56;;;;;;;17.00;6.23;;;;;;;;;;769603;180;863322;-59
2022/09/27 21:46:23;;;;;;;7.80;5.53;;;;;;;;;;753496;183;918928;-56
2022/09/27 21:48:49;;;;;;;10.27;6.00;;;;;;;;;;756814;183;817154;-56
2022/09/27 21:51:16;;;;;;;7.00;4.83;;;;;;;;;;757640;184;919032;-58
2022/09/27 21:53:42;;;;;;;14.03;8.77;;;;;;;;;;747160;184;1702111;-59
2022/09/27 21:56:08;;;;;;;6.93;4.87;;;;;;;;;;752621;183;919803;-56
2022/09/27 21:58:34;;;;;;;7.47;5.20;;;;;;;;;;754848;182;919873;-59
2022/09/27 22:01:05;;;;;;;6.20;4.60;;;;;;;;;;765131;183;919464;-56
2022/09/27 22:03:31;;;;;;;11.43;5.20;;;;;;;;;;762356;181;918248;-57
2022/09/27 22:05:57;;;;;;;10.27;4.60;;;;;;;;;;765536;181;921076;-59
2022/09/27 22:08:22;;;;;;;14.87;6.20;;;;;;;;;;768514;180;919905;-60
2022/09/27 22:10:48;;;;;;;9.95;5.00;;;;;;;;;;765358;181;919496;-59
2022/09/27 22:13:14;;;;;;;7.10;5.20;;;;;;;;;;765551;181;870741;-59
2022/09/27 22:15:40;;;;;;;8.20;5.10;;;;;;;;;;767195;180;920680;-59
2022/09/27 22:18:06;;;;;;;11.00;5.27;;;;;;;;;;766437;183;919211;-56
2022/09/27 22:20:31;;;;;;;9.50;5.33;;;;;;;;;;757237;182;919704;-56
2022/09/27 22:22:57;;;;;;;8.73;5.00;;;;;;;;;;758506;182;919422;-59
2022/09/27 22:25:23;;;;;;;7.10;4.67;;;;;;;;;;762699;182;817486;-56
2022/09/27 22:27:49;;;;;;;36.08;6.00;;;;;;;;;;764827;180;816662;-56
2022/09/27 22:30:16;;;;;;;27.40;5.77;;;;;;;;;;760072;180;919536;-56
2022/09/27 22:32:41;;;;;;;6.90;3.57;;;;;;;;;;761793;182;914553;-56
2022/09/27 22:35:07;;;;;;;5.60;3.87;;;;;;;;;;756943;183;920018;-59
2022/09/27 22:37:33;;;;;;;7.90;4.63;;;;;;;;;;757780;182;920038;-56
2022/09/27 22:39:59;;;;;;;6.28;3.80;;;;;;;;;;760585;182;920036;-56
2022/09/27 22:42:25;;;;;;;5.90;3.60;;;;;;;;;;757764;184;920149;-59
2022/09/27 22:44:51;;;;;;;5.40;3.90;;;;;;;;;;759418;182;919476;-56
2022/09/27 22:47:17;;;;;;;6.40;4.20;;;;;;;;;;749275;183;921928;-59
2022/09/27 22:49:43;;;;;;;5.00;3.70;;;;;;;;;;762760;181;918978;-59
2022/09/27 22:52:08;;;;;;;6.07;4.53;;;;;;;;;;764792;181;920117;-56
2022/09/27 22:54:35;;;;;;;9.40;3.73;;;;;;;;;;762713;181;926461;-56
2022/09/27 22:57:00;;;;;;;5.60;4.10;;;;;;;;;;766932;181;918486;-59
2022/09/27 22:59:26;;;;;;;6.23;4.23;;;;;;;;;;764809;181;914861;-56
2022/09/27 23:01:52;;;;;;;13.93;4.87;;;;;;;;;;763999;180;919029;-59
2022/09/27 23:04:18;;;;;;;7.23;5.07;;;;;;;;;;772041;181;821417;-56
2022/09/27 23:06:43;;;;;;;8.97;4.50;;;;;;;;;;760506;183;920155;-56
2022/09/27 23:09:09;;;;;;;7.60;4.80;;;;;;;;;;765666;181;871492;-55
2022/09/27 23:11:36;;;;;;;8.53;5.23;;;;;;;;;;767925;180;908178;-56
2022/09/27 23:14:04;;;;;;;11.07;4.77;;;;;;;;;;770139;181;920844;-59
2022/09/27 23:16:30;;;;;;;7.83;4.73;;;;;;;;;;765900;181;919182;-57
2022/09/27 23:18:55;;;;;;;7.10;5.13;;;;;;;;;;765598;180;919092;-61
2022/09/27 23:21:24;;;;;;;8.32;5.00;;;;;;;;;;771505;181;920048;-60
2022/09/27 23:23:48;;;;;;;19.37;6.27;;;;;;;;;;764369;181;920233;-57
2022/09/27 23:26:13;;;;;;;8.90;5.10;;;;;;;;;;765896;179;918379;-57
2022/09/27 23:28:39;;;;;;;8.87;6.00;;;;;;;;;;761555;180;919945;-58
2022/09/27 23:31:06;;;;;;;9.93;5.90;;;;;;;;;;766905;180;917768;-60
2022/09/27 23:33:32;;;;;;;7.77;5.23;;;;;;;;;;762616;181;819566;-57
2022/09/27 23:35:57;;;;;;;7.57;5.00;;;;;;;;;;760797;181;919684;-57
2022/09/27 23:38:23;;;;;;;8.10;5.67;;;;;;;;;;771595;180;906311;-57
2022/09/27 23:40:49;;;;;;;7.43;5.00;;;;;;;;;;765148;181;920581;-57
2022/09/27 23:43:14;;;;;;;12.40;5.67;;;;;;;;;;759802;182;920700;-59
2022/09/27 23:45:42;;;;;;;8.80;5.47;;;;;;;;;;762491;184;820879;-57
2022/09/27 23:48:06;;;;;;;8.27;5.93;;;;;;;;;;764790;183;817891;-57
2022/09/27 23:50:32;;;;;;;7.73;5.13;;;;;;;;;;761462;181;919106;-57
2022/09/27 23:52:58;;;;;;;7.67;5.33;;;;;;;;;;770482;180;821492;-57
2022/09/27 23:55:24;;;;;;;11.73;5.60;;;;;;;;;;765910;181;930980;-57
2022/09/27 23:57:50;;;;;;;8.93;4.83;;;;;;;;;;761684;181;918586;-58
